WIMM/MES METAR and TAF weather

Enter ICAO airport designator
Station Type Date Time Source
WIMM METAR 2019/04/20 22:30 UTC NOAA

WIMM 202230Z 24003KT 4000 BR SCT017 24/24 Q1005 NOSIG


Station Type Date Time Source
WIMM Decoded METAR 2019/04/20 22:30 UTC NOAA

Medan / Polonia, Indonesia (WIMM) 03-34N 098-41E 25M
Apr 20, 2019 - 06:30 PM EDT / 2019.04.20 2230 UTC
Wind: from the WSW (240 degrees) at 3 MPH (3 KT):0
Visibility: 2 mile(s):0
Sky conditions: partly cloudy
Weather: mist
Temperature: 75 F (24 C)
Dew Point: 75 F (24 C)
Relative Humidity: 100%
Pressure (altimeter): 29.68 in. Hg (1005 hPa)
ob: WIMM 202230Z 24003KT 4000 BR SCT017 24/24 Q1005 NOSIG
cycle: 22

Station Type Date Time Source
WIMM TAF 2019/04/20 18:09 UTC NOAA

TAF WIMM 201700Z 2018/2118 23008KT 5000 HZ SCT017
BECMG 2102/2104 36010KT 9000 SCT020
BECMG 2110/2112 VRB04KT 4000 HZ

Example: see airport list